Time;durP1;ratioP1;P1;durP2;ratioP2;P2;SDS_P1;SDS_P2;PMS_P1;PMS_P2;Temp;Humidity;BMP_temperature;BMP_pressure;BME280_temperature;BME280_humidity;BME280_pressure;Samples;Min_cycle;Max_cycle;Signal;HPM_P1;HPM_P2
2021/05/25 00:01:00;;;;;;;;;;;;;;;21.25;54.03;100524.28;2103971;28;4023;-29
2021/05/25 00:02:02;;;;;;;;;;;;;;;21.26;53.99;100528.00;2105263;28;4200;-29
2021/05/25 00:03:07;;;;;;;;;;;;;;;21.26;53.96;100531.66;2104018;28;4016;-27
2021/05/25 00:04:08;;;;;;;;;;;;;;;21.26;54.01;100528.00;2104843;28;3884;-30
2021/05/25 00:05:09;;;;;;;;;;;;;;;21.26;53.95;100525.16;2105362;28;4048;-29
2021/05/25 00:06:11;;;;;;;;;;;;;;;21.27;54.15;100533.31;2105862;28;3928;-28
2021/05/25 00:07:12;;;;;;;;;;;;;;;21.27;54.05;100538.19;2104602;28;4131;-27
2021/05/25 00:08:13;;;;;;;;;;;;;;;21.26;54.09;100533.69;2105243;28;5064;-27
2021/05/25 00:09:14;;;;;;;;;;;;;;;21.26;54.03;100534.50;2105064;28;4033;-28
2021/05/25 00:10:15;;;;;;;;;;;;;;;21.27;54.06;100538.19;2105577;28;3826;-28
2021/05/25 00:11:17;;;;;;;;;;;;;;;21.27;54.03;100546.72;2104013;28;4032;-28
2021/05/25 00:12:18;;;;;;;;;;;;;;;21.26;54.13;100547.91;2104851;28;3989;-27
2021/05/25 00:13:19;;;;;;;;;;;;;;;21.27;54.20;100550.38;2104983;28;4075;-27
2021/05/25 00:14:21;;;;;;;;;;;;;;;21.27;54.02;100549.56;2105339;28;3949;-27
2021/05/25 00:15:22;;;;;;;;;;;;;;;21.27;54.23;100549.56;2105149;28;4018;-27
2021/05/25 00:16:24;;;;;;;;;;;;;;;21.27;54.24;100549.56;2105142;28;4016;-28
2021/05/25 00:17:25;;;;;;;;;;;;;;;21.27;54.17;100549.56;2105641;28;3840;-27
2021/05/25 00:18:26;;;;;;;;;;;;;;;21.27;54.40;100553.22;2105660;28;3835;-28
2021/05/25 00:19:28;;;;;;;;;;;;;;;21.28;54.22;100556.88;2105735;28;4239;-28
2021/05/25 00:20:29;;;;;;;;;;;;;;;21.28;54.40;100554.03;2105429;28;3964;-27
2021/05/25 00:21:30;;;;;;;;;;;;;;;21.28;54.54;100557.75;2105128;28;4769;-33
2021/05/25 00:22:31;;;;;;;;;;;;;;;21.29;54.43;100564.25;2105109;28;4068;-27
2021/05/25 00:23:33;;;;;;;;;;;;;;;21.30;54.43;100560.22;2105590;28;3859;-29
2021/05/25 00:24:34;;;;;;;;;;;;;;;21.30;54.28;100563.06;2103428;28;4189;-27
2021/05/25 00:25:36;;;;;;;;;;;;;;;21.28;54.44;100566.28;2105120;28;4048;-33
2021/05/25 00:26:37;;;;;;;;;;;;;;;21.29;54.32;100555.72;2105154;28;3856;-34
2021/05/25 00:27:38;;;;;;;;;;;;;;;21.28;54.39;100557.75;2105211;28;4088;-29
2021/05/25 00:28:41;;;;;;;;;;;;;;;21.30;54.43;100557.38;2105825;28;4959;-28
2021/05/25 00:29:42;;;;;;;;;;;;;;;21.28;54.46;100566.28;2103433;28;3860;-28
2021/05/25 00:30:44;;;;;;;;;;;;;;;21.29;54.53;100572.78;2096271;28;4039;-27
2021/05/25 00:31:45;;;;;;;;;;;;;;;21.29;54.40;100576.47;2096356;28;3899;-31
2021/05/25 00:32:46;;;;;;;;;;;;;;;21.28;54.28;100580.50;2105103;28;4037;-30
2021/05/25 00:33:47;;;;;;;;;;;;;;;21.28;54.44;100571.97;2105331;28;3882;-27
2021/05/25 00:34:49;;;;;;;;;;;;;;;21.29;54.56;100581.31;2102761;28;4046;-27
2021/05/25 00:35:53;;;;;;;;;;;;;;;21.29;54.42;100575.63;2098571;28;4222;-33
2021/05/25 00:36:54;;;;;;;;;;;;;;;21.28;54.35;100583.34;2105207;28;4228;-27
2021/05/25 00:37:55;;;;;;;;;;;;;;;21.29;54.39;100578.47;2105338;28;4016;-27
2021/05/25 00:38:56;;;;;;;;;;;;;;;21.30;54.36;100577.28;2105411;28;4045;-28
2021/05/25 00:39:57;;;;;;;;;;;;;;;21.30;54.32;100580.13;2105588;28;4037;-30
2021/05/25 00:40:59;;;;;;;;;;;;;;;21.30;54.52;100586.63;2104973;28;4184;-32
2021/05/25 00:42:00;;;;;;;;;;;;;;;21.29;54.40;100585.00;2105254;28;3881;-27
2021/05/25 00:43:01;;;;;;;;;;;;;;;21.29;54.31;100581.31;2104991;28;4080;-30
2021/05/25 00:44:02;;;;;;;;;;;;;;;21.29;54.34;100582.16;2105449;28;4104;-28
2021/05/25 00:45:04;;;;;;;;;;;;;;;21.30;54.46;100582.97;2104211;28;3881;-28
2021/05/25 00:46:05;;;;;;;;;;;;;;;21.30;54.55;100582.97;2105341;28;4043;-30
2021/05/25 00:47:06;;;;;;;;;;;;;;;21.30;54.34;100578.09;2103951;28;3906;-29
2021/05/25 00:48:07;;;;;;;;;;;;;;;21.30;54.51;100575.25;2104593;28;3918;-30
2021/05/25 00:49:09;;;;;;;;;;;;;;;21.30;54.40;100583.78;2105386;28;3902;-33
2021/05/25 00:50:11;;;;;;;;;;;;;;;21.29;54.36;100593.53;2105415;28;4159;-29
2021/05/25 00:51:13;;;;;;;;;;;;;;;21.30;54.42;100583.78;2105055;28;4028;-29
2021/05/25 00:52:14;;;;;;;;;;;;;;;21.29;54.41;100585.00;2105078;28;4012;-30
2021/05/25 00:53:15;;;;;;;;;;;;;;;21.30;54.46;100582.97;2105513;28;3983;-29
2021/05/25 00:54:17;;;;;;;;;;;;;;;21.30;54.47;100586.63;2105032;28;4024;-26
2021/05/25 00:55:18;;;;;;;;;;;;;;;21.30;54.71;100589.50;2104381;28;4064;-27
2021/05/25 00:56:19;;;;;;;;;;;;;;;21.31;54.51;100576.94;2105065;28;3826;-28
2021/05/25 00:57:20;;;;;;;;;;;;;;;21.30;54.59;100580.94;2105914;28;3974;-27
2021/05/25 00:58:21;;;;;;;;;;;;;;;21.30;54.48;100575.25;2104985;28;3972;-28
2021/05/25 00:59:23;;;;;;;;;;;;;;;21.30;54.61;100583.78;2104886;28;4085;-30
2021/05/25 01:00:24;;;;;;;;;;;;;;;21.30;54.72;100578.09;2104812;28;4008;-29
2021/05/25 01:01:25;;;;;;;;;;;;;;;21.31;54.55;100579.78;2105377;28;4017;-29
2021/05/25 01:02:26;;;;;;;;;;;;;;;21.30;54.40;100572.41;2103085;28;4021;-29
2021/05/25 01:03:28;;;;;;;;;;;;;;;21.31;54.66;100570.38;2104781;28;3890;-28
2021/05/25 01:04:30;;;;;;;;;;;;;;;21.29;54.60;100567.91;2104992;28;4038;-33
2021/05/25 01:05:32;;;;;;;;;;;;;;;21.30;54.66;100578.09;2104652;28;4888;-28
2021/05/25 01:06:33;;;;;;;;;;;;;;;21.31;54.52;100576.06;2104478;28;4055;-28
2021/05/25 01:07:35;;;;;;;;;;;;;;;21.31;54.68;100568.41;2103575;28;3991;-27
2021/05/25 01:08:38;;;;;;;;;;;;;;;21.31;54.71;100571.25;2105477;28;4054;-29
2021/05/25 01:09:39;;;;;;;;;;;;;;;21.32;54.81;100577.75;2105231;28;3876;-28
2021/05/25 01:10:44;;;;;;;;;;;;;;;21.32;54.50;100574.91;2105074;28;4062;-27
2021/05/25 01:11:46;;;;;;;;;;;;;;;21.32;54.65;100580.59;2105340;28;4010;-32
2021/05/25 01:12:53;;;;;;;;;;;;;;;21.31;54.61;100574.09;2093786;28;4063;-27
2021/05/25 01:13:57;;;;;;;;;;;;;;;21.32;54.78;100575.72;2097178;28;4028;-28
2021/05/25 01:15:03;;;;;;;;;;;;;;;21.32;54.70;100574.91;2105330;28;4097;-29
2021/05/25 01:16:05;;;;;;;;;;;;;;;21.32;54.85;100572.88;2104786;28;3967;-27
2021/05/25 01:18:33;;;;;;;;;;;;;;;21.31;54.83;100573.25;2104168;28;4696;-29
2021/05/25 01:19:34;;;;;;;;;;;;;;;21.32;54.80;100567.19;2105955;28;3893;-30
2021/05/25 01:20:35;;;;;;;;;;;;;;;21.33;54.91;100568.03;2104662;28;4036;-28
2021/05/25 01:21:36;;;;;;;;;;;;;;;21.33;54.94;100559.47;2105437;28;5008;-29
2021/05/25 01:22:38;;;;;;;;;;;;;;;21.32;54.93;100563.53;2102165;28;4070;-29
2021/05/25 01:23:39;;;;;;;;;;;;;;;21.32;54.86;100564.34;2097780;28;3876;-28
2021/05/25 01:24:40;;;;;;;;;;;;;;;21.33;54.95;100565.16;2105375;28;4016;-30
2021/05/25 01:25:41;;;;;;;;;;;;;;;21.32;54.81;100564.34;2104814;28;4056;-27
2021/05/25 01:26:43;;;;;;;;;;;;;;;21.32;54.84;100564.34;2102742;28;4032;-29
2021/05/25 01:27:44;;;;;;;;;;;;;;;21.32;54.81;100570.03;2099731;28;4071;-28
2021/05/25 01:28:45;;;;;;;;;;;;;;;21.33;55.09;100568.03;2096956;28;4009;-27
2021/05/25 01:29:46;;;;;;;;;;;;;;;21.33;54.89;100563.16;2102543;28;3872;-38
2021/05/25 01:30:48;;;;;;;;;;;;;;;21.33;54.99;100566.00;2102349;28;4333;-28
2021/05/25 01:31:49;;;;;;;;;;;;;;;21.33;55.07;100573.72;2102527;28;4055;-33
2021/05/25 01:32:50;;;;;;;;;;;;;;;21.33;54.97;100568.03;2104738;28;4062;-29
2021/05/25 01:33:51;;;;;;;;;;;;;;;21.32;55.15;100570.03;2104927;28;4041;-28
2021/05/25 01:34:52;;;;;;;;;;;;;;;21.33;55.06;100570.88;2105554;28;4059;-27
2021/05/25 01:35:54;;;;;;;;;;;;;;;21.33;55.05;100574.53;2104395;28;4035;-27
2021/05/25 01:36:55;;;;;;;;;;;;;;;21.33;55.03;100571.69;2103428;28;4034;-28
2021/05/25 01:37:56;;;;;;;;;;;;;;;21.33;55.13;100571.69;2105212;28;4101;-28
2021/05/25 01:38:57;;;;;;;;;;;;;;;21.34;55.41;100566.84;2105380;28;3858;-29
2021/05/25 01:39:59;;;;;;;;;;;;;;;21.35;55.44;100568.50;2105238;28;4056;-28
2021/05/25 01:41:00;;;;;;;;;;;;;;;21.35;55.46;100568.50;2103480;28;3873;-28
2021/05/25 01:42:01;;;;;;;;;;;;;;;21.34;55.50;100566.84;2105207;28;3925;-29
2021/05/25 01:43:02;;;;;;;;;;;;;;;21.34;55.61;100561.97;2104729;28;4062;-32
2021/05/25 01:44:04;;;;;;;;;;;;;;;21.34;55.35;100567.66;2104405;28;3837;-28
2021/05/25 01:45:05;;;;;;;;;;;;;;;21.35;55.35;100565.66;2103680;28;3879;-32
2021/05/25 01:46:06;;;;;;;;;;;;;;;21.35;55.41;100562.81;2104163;28;4087;-28
2021/05/25 01:47:08;;;;;;;;;;;;;;;21.34;55.53;100564.81;2105257;28;4139;-32
2021/05/25 01:48:09;;;;;;;;;;;;;;;21.35;55.35;100569.31;2104199;28;4182;-29
2021/05/25 01:49:11;;;;;;;;;;;;;;;21.35;55.31;100565.66;2104543;28;3890;-30
2021/05/25 01:50:13;;;;;;;;;;;;;;;21.36;55.33;100564.44;2105033;28;4072;-28
2021/05/25 01:51:14;;;;;;;;;;;;;;;21.35;55.46;100569.31;2104518;28;4073;-31
2021/05/25 01:52:15;;;;;;;;;;;;;;;21.35;55.56;100574.19;2103848;28;4157;-30
2021/05/25 01:53:17;;;;;;;;;;;;;;;21.34;55.33;100570.50;2104286;28;3883;-28
2021/05/25 01:54:18;;;;;;;;;;;;;;;21.35;55.50;100565.66;2104679;28;4139;-29
2021/05/25 01:55:19;;;;;;;;;;;;;;;21.35;55.51;100560.78;2097356;28;3842;-29
2021/05/25 01:56:20;;;;;;;;;;;;;;;21.35;55.37;100557.94;2104474;28;4061;-30
2021/05/25 01:57:22;;;;;;;;;;;;;;;21.35;55.63;100546.53;2103494;28;3861;-31
2021/05/25 01:58:24;;;;;;;;;;;;;;;21.35;55.52;100545.72;2104284;28;4248;-27
2021/05/25 01:59:26;;;;;;;;;;;;;;;21.35;55.52;100542.88;2104765;28;3825;-28
2021/05/25 02:00:27;;;;;;;;;;;;;;;21.34;55.41;100544.91;2103865;28;3979;-33
2021/05/25 02:01:29;;;;;;;;;;;;;;;21.35;55.49;100532.31;2104714;28;3971;-28
2021/05/25 02:02:30;;;;;;;;;;;;;;;21.35;55.46;100532.31;2104181;28;3665;-33
2021/05/25 02:03:32;;;;;;;;;;;;;;;21.35;55.63;100535.16;2103426;28;4409;-29
2021/05/25 02:04:33;;;;;;;;;;;;;;;21.35;55.47;100526.63;2105814;28;4006;-31
2021/05/25 02:05:35;;;;;;;;;;;;;;;21.37;55.68;100522.63;2104243;28;4044;-28
2021/05/25 02:06:36;;;;;;;;;;;;;;;21.37;55.53;100529.16;2104840;28;3901;-30
2021/05/25 02:07:39;;;;;;;;;;;;;;;21.35;55.59;100523.78;2104514;28;3933;-31
2021/05/25 02:08:40;;;;;;;;;;;;;;;21.36;55.72;100521.75;2104649;28;4034;-31
2021/05/25 02:09:42;;;;;;;;;;;;;;;21.36;55.55;100513.22;2104921;28;3892;-33
2021/05/25 02:10:43;;;;;;;;;;;;;;;21.36;55.63;100516.06;2104825;28;4052;-35
2021/05/25 02:11:44;;;;;;;;;;;;;;;21.35;55.73;100518.09;2105502;28;4064;-35
2021/05/25 02:12:45;;;;;;;;;;;;;;;21.36;55.88;100518.91;2105564;28;4053;-39
2021/05/25 02:13:47;;;;;;;;;;;;;;;21.37;55.93;100517.78;2106495;28;4068;-29
2021/05/25 02:14:48;;;;;;;;;;;;;;;21.37;55.85;100514.06;2106608;28;4045;-32
2021/05/25 02:15:49;;;;;;;;;;;;;;;21.37;55.96;100514.06;2105239;28;4078;-34
2021/05/25 02:16:50;;;;;;;;;;;;;;;21.37;55.84;100508.38;2105910;28;4071;-29
2021/05/25 02:17:51;;;;;;;;;;;;;;;21.36;56.11;100513.22;2106721;28;4238;-31
2021/05/25 02:18:52;;;;;;;;;;;;;;;21.37;56.00;100511.22;2106194;28;3889;-29
2021/05/25 02:19:54;;;;;;;;;;;;;;;21.37;55.97;100516.91;2106741;28;4039;-32
2021/05/25 02:20:55;;;;;;;;;;;;;;;21.37;55.92;100526.31;2105772;28;4098;-29
2021/05/25 02:21:56;;;;;;;;;;;;;;;21.37;55.93;100532.00;2106818;28;4208;-30
2021/05/25 02:22:58;;;;;;;;;;;;;;;21.37;55.92;100529.16;2105774;28;4036;-30
2021/05/25 02:23:59;;;;;;;;;;;;;;;21.38;56.04;100532.81;2105539;28;4010;-29
2021/05/25 02:25:00;;;;;;;;;;;;;;;21.37;55.95;100537.69;2101063;28;3890;-29
2021/05/25 02:26:02;;;;;;;;;;;;;;;21.37;55.95;100540.53;2101133;28;3771;-33
2021/05/25 02:27:03;;;;;;;;;;;;;;;21.38;56.07;100538.53;2106232;28;4012;-31
2021/05/25 02:28:04;;;;;;;;;;;;;;;21.37;55.85;100549.06;2106519;28;4119;-31
2021/05/25 02:29:05;;;;;;;;;;;;;;;21.37;55.94;100543.38;2104638;28;3757;-30
2021/05/25 02:30:07;;;;;;;;;;;;;;;21.38;55.98;100547.06;2106762;28;3825;-29
2021/05/25 02:31:08;;;;;;;;;;;;;;;21.38;55.76;100544.22;2106090;28;4039;-29
2021/05/25 02:32:09;;;;;;;;;;;;;;;21.38;55.97;100545.03;2106142;28;4312;-29
2021/05/25 02:33:10;;;;;;;;;;;;;;;21.38;55.91;100544.22;2106188;28;4111;-30
2021/05/25 02:34:12;;;;;;;;;;;;;;;21.37;56.14;100540.53;2105184;28;3996;-30
2021/05/25 02:35:13;;;;;;;;;;;;;;;21.38;56.04;100539.34;2106039;28;4023;-31
2021/05/25 02:36:14;;;;;;;;;;;;;;;21.38;56.02;100538.53;2105620;28;4114;-30
2021/05/25 02:37:16;;;;;;;;;;;;;;;21.38;56.09;100542.19;2106030;28;4033;-41
2021/05/25 02:38:17;;;;;;;;;;;;;;;21.38;56.22;100539.34;2107037;28;3832;-31
2021/05/25 02:39:18;;;;;;;;;;;;;;;21.39;56.27;100543.00;2105530;28;4042;-29
2021/05/25 02:40:19;;;;;;;;;;;;;;;21.39;56.07;100534.47;2105891;28;3973;-30
2021/05/25 02:41:21;;;;;;;;;;;;;;;21.39;56.06;100540.16;2105207;28;3803;-34
2021/05/25 02:42:22;;;;;;;;;;;;;;;21.39;55.99;100548.69;2106071;28;4039;-30
2021/05/25 02:43:23;;;;;;;;;;;;;;;21.39;56.01;100545.84;2105779;28;4747;-29
2021/05/25 02:44:24;;;;;;;;;;;;;;;21.39;56.17;100549.53;2106102;28;3964;-33
2021/05/25 02:45:26;;;;;;;;;;;;;;;21.39;55.93;100548.69;2105490;28;3838;-31
2021/05/25 02:46:27;;;;;;;;;;;;;;;21.39;56.04;100549.53;2106623;28;3833;-31
2021/05/25 02:47:28;;;;;;;;;;;;;;;21.41;56.04;100546.31;2105633;28;3985;-30
2021/05/25 02:48:29;;;;;;;;;;;;;;;21.40;56.30;100556.06;2105528;28;3822;-29
2021/05/25 02:49:30;;;;;;;;;;;;;;;21.40;56.24;100559.72;2105215;28;4039;-32
2021/05/25 02:50:32;;;;;;;;;;;;;;;21.40;56.16;100554.03;2106298;28;4091;-29
2021/05/25 02:51:33;;;;;;;;;;;;;;;21.41;56.24;100552.03;2106237;28;4057;-30
2021/05/25 02:52:34;;;;;;;;;;;;;;;21.41;56.09;100549.16;2106506;28;4211;-29
2021/05/25 02:53:36;;;;;;;;;;;;;;;21.40;56.18;100551.19;2104625;28;4010;-31
2021/05/25 02:54:37;;;;;;;;;;;;;;;21.41;56.23;100549.16;2106653;28;4032;-30
2021/05/25 02:55:39;;;;;;;;;;;;;;;21.41;56.31;100555.69;2105596;28;4146;-30
2021/05/25 02:56:40;;;;;;;;;;;;;;;21.43;56.40;100558.19;2105629;28;4000;-33
2021/05/25 02:57:42;;;;;;;;;;;;;;;21.43;56.45;100556.16;2106122;28;3879;-34
2021/05/25 02:58:43;;;;;;;;;;;;;;;21.42;56.37;100543.13;2105152;28;4164;-29
2021/05/25 02:59:44;;;;;;;;;;;;;;;21.43;56.37;100543.94;2105473;28;3850;-33
2021/05/25 03:00:45;;;;;;;;;;;;;;;21.42;56.23;100540.28;2106233;28;6120;-37
2021/05/25 03:01:47;;;;;;;;;;;;;;;21.43;56.48;100541.94;2105960;28;4174;-31
2021/05/25 03:02:52;;;;;;;;;;;;;;;21.42;56.28;100543.13;2106487;28;3848;-31
2021/05/25 03:03:53;;;;;;;;;;;;;;;21.43;56.40;100533.38;2105454;28;4079;-32
2021/05/25 03:04:55;;;;;;;;;;;;;;;21.43;56.33;100536.22;2105012;28;3885;-33
2021/05/25 03:05:56;;;;;;;;;;;;;;;21.45;56.56;100530.16;2104724;28;4039;-32
2021/05/25 03:06:57;;;;;;;;;;;;;;;21.44;56.50;100528.53;2106202;28;4072;-30
2021/05/25 03:08:01;;;;;;;;;;;;;;;21.45;56.34;100538.69;2105816;28;3873;-30
2021/05/25 03:09:03;;;;;;;;;;;;;;;21.45;56.56;100527.31;2105426;28;4038;-29
2021/05/25 03:10:04;;;;;;;;;;;;;;;21.44;56.31;100531.38;2106235;28;3846;-28
2021/05/25 03:11:05;;;;;;;;;;;;;;;21.45;56.58;100525.31;2106594;28;3859;-31
2021/05/25 03:12:07;;;;;;;;;;;;;;;21.45;56.37;100530.16;2106202;28;4147;-32
2021/05/25 03:13:08;;;;;;;;;;;;;;;21.45;56.61;100533.88;2106065;28;3958;-31
2021/05/25 03:14:09;;;;;;;;;;;;;;;21.44;56.65;100529.34;2102411;28;3907;-31
2021/05/25 03:15:10;;;;;;;;;;;;;;;21.45;56.40;100536.72;2106520;28;3811;-30
2021/05/25 03:16:12;;;;;;;;;;;;;;;21.46;56.39;100548.91;2105909;28;4045;-30
2021/05/25 03:17:13;;;;;;;;;;;;;;;21.45;56.53;100548.09;2105685;28;3933;-29
2021/05/25 03:18:14;;;;;;;;;;;;;;;21.45;56.54;100542.41;2098872;28;4047;-30
2021/05/25 03:19:15;;;;;;;;;;;;;;;21.46;56.53;100546.06;2103590;28;3834;-32
2021/05/25 03:20:17;;;;;;;;;;;;;;;21.47;56.49;100542.03;2105482;28;3864;-29
2021/05/25 03:21:18;;;;;;;;;;;;;;;21.47;56.50;100547.72;2105669;28;4033;-30
2021/05/25 03:22:19;;;;;;;;;;;;;;;21.47;56.53;100547.72;2104771;28;4097;-30
2021/05/25 03:23:21;;;;;;;;;;;;;;;21.47;56.42;100553.41;2105303;28;3964;-30
2021/05/25 03:24:22;;;;;;;;;;;;;;;21.46;56.55;100554.59;2103942;28;4101;-33
2021/05/25 03:25:24;;;;;;;;;;;;;;;21.46;56.53;100551.75;2105571;28;3991;-30
2021/05/25 03:26:25;;;;;;;;;;;;;;;21.47;56.53;100542.03;2097520;28;3876;-30
2021/05/25 03:27:26;;;;;;;;;;;;;;;21.46;56.34;100558.28;2103910;28;3825;-33
2021/05/25 03:28:27;;;;;;;;;;;;;;;21.48;56.33;100566.47;2106017;28;4038;-35
2021/05/25 03:29:30;;;;;;;;;;;;;;;21.46;56.49;100549.75;2105380;28;3975;-33
2021/05/25 03:30:31;;;;;;;;;;;;;;;21.47;56.31;100537.16;2104948;28;4002;-30
2021/05/25 03:31:32;;;;;;;;;;;;;;;21.47;56.50;100536.31;2106132;28;4060;-29
2021/05/25 03:32:33;;;;;;;;;;;;;;;21.47;56.35;100553.41;2105405;28;3880;-31
2021/05/25 03:33:35;;;;;;;;;;;;;;;21.47;56.53;100551.38;2103454;28;4049;-31
2021/05/25 03:34:36;;;;;;;;;;;;;;;21.47;56.46;100554.22;2098218;28;4039;-31
2021/05/25 03:35:38;;;;;;;;;;;;;;;21.47;56.34;100551.38;2104450;28;4052;-38
2021/05/25 03:36:39;;;;;;;;;;;;;;;21.48;56.64;100552.22;2104459;28;4041;-30
2021/05/25 03:37:40;;;;;;;;;;;;;;;21.48;56.46;100552.22;2106260;28;3936;-31
2021/05/25 03:38:41;;;;;;;;;;;;;;;21.48;56.45;100557.94;2105950;28;3912;-29
2021/05/25 03:39:43;;;;;;;;;;;;;;;21.47;56.52;100557.06;2105343;28;4023;-35
2021/05/25 03:40:44;;;;;;;;;;;;;;;21.47;56.53;100557.06;2106153;28;4007;-30
2021/05/25 03:41:45;;;;;;;;;;;;;;;21.48;56.49;100555.06;2104447;28;3942;-32
2021/05/25 03:42:46;;;;;;;;;;;;;;;21.49;56.43;100553.88;2106383;28;3965;-33
2021/05/25 03:43:47;;;;;;;;;;;;;;;21.48;56.28;100558.75;2103689;28;4055;-31
2021/05/25 03:44:49;;;;;;;;;;;;;;;21.49;56.41;100556.72;2101838;28;3883;-29
2021/05/25 03:45:50;;;;;;;;;;;;;;;21.48;56.35;100555.06;2105140;28;3923;-34
2021/05/25 03:46:51;;;;;;;;;;;;;;;21.48;56.46;100555.91;2105208;28;4050;-30
2021/05/25 03:47:52;;;;;;;;;;;;;;;21.48;56.46;100555.06;2104283;28;4054;-33
2021/05/25 03:48:53;;;;;;;;;;;;;;;21.49;56.47;100565.25;2104614;28;3910;-33
2021/05/25 03:50:06;;;;;;;;;;;;;;;21.48;56.45;100558.75;2105098;28;3899;-29
2021/05/25 03:51:07;;;;;;;;;;;;;;;21.49;56.45;100563.25;2105647;28;3849;-30
2021/05/25 03:52:08;;;;;;;;;;;;;;;21.49;56.31;100562.41;2104659;28;4073;-30
2021/05/25 03:53:10;;;;;;;;;;;;;;;21.50;56.43;100558.38;2106036;28;4032;-32
2021/05/25 03:54:19;;;;;;;;;;;;;;;21.49;56.47;100553.88;2105104;28;4047;-35
2021/05/25 03:55:25;;;;;;;;;;;;;;;21.48;56.42;100555.91;2105329;28;3851;-29
2021/05/25 03:56:34;;;;;;;;;;;;;;;21.47;56.49;100559.09;2105980;28;4008;-29
2021/05/25 03:58:53;;;;;;;;;;;;;;;21.48;56.31;100561.59;2105630;28;4046;-32
2021/05/25 03:59:54;;;;;;;;;;;;;;;21.49;56.53;100559.56;2105124;28;3852;-29
2021/05/25 04:00:55;;;;;;;;;;;;;;;21.51;56.62;100560.03;2104470;28;3879;-34
2021/05/25 04:01:56;;;;;;;;;;;;;;;21.50;56.64;100559.22;2105848;28;4054;-30
2021/05/25 04:02:57;;;;;;;;;;;;;;;21.52;57.44;100551.13;2105198;28;3909;-28
2021/05/25 04:03:59;;;;;;;;;;;;;;;21.55;58.18;100560.97;2105164;28;3867;-31
2021/05/25 04:05:00;;;;;;;;;;;;;;;21.56;58.63;100560.59;2104495;28;4025;-30
2021/05/25 04:06:01;;;;;;;;;;;;;;;21.59;58.83;100566.78;2105272;28;4054;-34
2021/05/25 04:07:03;;;;;;;;;;;;;;;21.60;59.39;100559.88;2105189;28;3993;-29
2021/05/25 04:08:04;;;;;;;;;;;;;;;21.62;59.49;100560.34;2105355;28;3889;-29
2021/05/25 04:09:06;;;;;;;;;;;;;;;21.62;59.63;100561.16;2103214;28;3946;-32
2021/05/25 04:10:07;;;;;;;;;;;;;;;21.63;59.13;100564.84;2105276;28;4068;-32
2021/05/25 04:11:08;;;;;;;;;;;;;;;21.64;59.29;100560.78;2105377;28;3996;-28
2021/05/25 04:12:09;;;;;;;;;;;;;;;21.63;59.06;100562.00;2105123;28;4042;-28
2021/05/25 04:13:11;;;;;;;;;;;;;;;21.63;58.88;100574.19;2104841;28;4074;-34
2021/05/25 04:14:12;;;;;;;;;;;;;;;21.61;58.20;100562.34;2106534;28;4020;-31
2021/05/25 04:15:13;;;;;;;;;;;;;;;21.43;56.98;100563.88;2103936;28;3992;-29
2021/05/25 04:16:14;;;;;;;;;;;;;;;21.29;56.53;100567.09;2105171;28;4031;-33
2021/05/25 04:17:16;;;;;;;;;;;;;;;21.18;56.34;100560.28;2105832;28;4108;-33
2021/05/25 04:18:17;;;;;;;;;;;;;;;21.11;56.24;100569.41;2104971;28;3982;-31
2021/05/25 04:19:18;;;;;;;;;;;;;;;21.06;56.27;100573.34;2105299;28;4035;-33
2021/05/25 04:20:19;;;;;;;;;;;;;;;20.99;55.58;100564.59;2103912;28;4013;-35
2021/05/25 04:21:21;;;;;;;;;;;;;;;20.95;55.00;100559.97;2104556;28;3850;-29
2021/05/25 04:22:22;;;;;;;;;;;;;;;20.88;55.09;100564.25;2104869;28;3995;-29
2021/05/25 04:23:23;;;;;;;;;;;;;;;20.84;55.03;100562.47;2104769;28;4042;-31
2021/05/25 04:24:24;;;;;;;;;;;;;;;20.83;55.16;100558.81;2103958;28;3890;-28
2021/05/25 04:25:25;;;;;;;;;;;;;;;20.78;54.65;100566.75;2104122;28;4059;-29
2021/05/25 04:26:27;;;;;;;;;;;;;;;20.79;54.79;100557.06;2104832;28;3998;-33
2021/05/25 04:27:28;;;;;;;;;;;;;;;20.79;54.80;100557.88;2105043;28;3971;-29
2021/05/25 04:28:29;;;;;;;;;;;;;;;20.73;54.44;100564.16;2103494;28;3969;-32
2021/05/25 04:29:31;;;;;;;;;;;;;;;20.66;54.44;100564.75;2103561;28;3823;-33
2021/05/25 04:30:33;;;;;;;;;;;;;;;20.63;54.32;100571.16;2104086;28;4074;-34
2021/05/25 04:31:34;;;;;;;;;;;;;;;20.61;54.26;100567.84;2104700;28;4038;-27
2021/05/25 04:32:35;;;;;;;;;;;;;;;20.56;54.19;100568.91;2105268;28;3842;-31
2021/05/25 04:33:37;;;;;;;;;;;;;;;20.57;54.25;100566.91;2102489;28;4075;-41
2021/05/25 04:34:39;;;;;;;;;;;;;;;20.53;54.02;100572.47;2104518;28;4044;-38
2021/05/25 04:35:40;;;;;;;;;;;;;;;20.53;54.17;100574.44;2105401;28;3987;-37
2021/05/25 04:36:41;;;;;;;;;;;;;;;20.50;53.99;100572.31;2104553;28;4088;-32
2021/05/25 04:37:43;;;;;;;;;;;;;;;20.49;53.98;100570.69;2104666;28;4078;-35
2021/05/25 04:38:44;;;;;;;;;;;;;;;20.43;53.66;100572.94;2104829;28;4064;-36
2021/05/25 04:39:45;;;;;;;;;;;;;;;20.43;53.89;100575.78;2104086;28;3905;-36
2021/05/25 04:40:47;;;;;;;;;;;;;;;20.40;53.86;100579.31;2104499;28;4064;-32
2021/05/25 04:41:48;;;;;;;;;;;;;;;20.43;53.75;100585.13;2104993;28;4288;-28
2021/05/25 04:42:49;;;;;;;;;;;;;;;20.43;53.40;100579.44;2104683;28;4046;-26
2021/05/25 04:43:50;;;;;;;;;;;;;;;20.41;53.30;100576.13;2105970;28;4008;-28
2021/05/25 04:44:52;;;;;;;;;;;;;;;20.40;53.14;100579.31;2104372;28;4026;-27
2021/05/25 04:45:53;;;;;;;;;;;;;;;20.37;53.06;100580.88;2100678;28;4125;-29
2021/05/25 04:46:54;;;;;;;;;;;;;;;20.34;53.30;100584.38;2104192;28;3888;-29
2021/05/25 04:47:55;;;;;;;;;;;;;;;20.36;53.17;100589.72;2104719;28;4042;-29
2021/05/25 04:48:56;;;;;;;;;;;;;;;20.33;52.97;100594.09;2105240;28;4018;-35
2021/05/25 04:49:58;;;;;;;;;;;;;;;20.32;53.10;100591.59;2104987;28;4040;-32
2021/05/25 04:50:59;;;;;;;;;;;;;;;20.31;53.01;100587.94;2106057;28;4074;-26
2021/05/25 04:52:00;;;;;;;;;;;;;;;20.30;52.83;100588.31;2103386;28;4150;-26
2021/05/25 04:53:01;;;;;;;;;;;;;;;20.23;52.77;100581.22;2103049;28;3899;-29
2021/05/25 04:54:02;;;;;;;;;;;;;;;20.21;52.62;100577.91;2105085;28;3841;-30
2021/05/25 04:55:04;;;;;;;;;;;;;;;20.21;52.58;100579.91;2104591;28;3934;-27
2021/05/25 04:56:05;;;;;;;;;;;;;;;20.20;52.72;100581.91;2104825;28;4043;-27
2021/05/25 04:57:06;;;;;;;;;;;;;;;20.20;52.51;100575.41;2105552;28;4110;-26
2021/05/25 04:58:08;;;;;;;;;;;;;;;20.20;52.68;100578.22;2104836;28;3909;-26
2021/05/25 04:59:09;;;;;;;;;;;;;;;20.18;52.68;100580.59;2105405;28;4033;-26
2021/05/25 05:00:10;;;;;;;;;;;;;;;20.14;52.36;100571.13;2103397;28;4060;-25
2021/05/25 05:01:11;;;;;;;;;;;;;;;20.13;52.38;100578.00;2104631;28;4207;-26
2021/05/25 05:02:15;;;;;;;;;;;;;;;20.12;52.33;100568.63;2105158;28;3879;-26
2021/05/25 05:03:16;;;;;;;;;;;;;;;20.12;52.05;100568.63;2104371;28;3844;-30
2021/05/25 05:04:18;;;;;;;;;;;;;;;20.11;52.15;100569.81;2105149;28;3982;-27
2021/05/25 05:05:19;;;;;;;;;;;;;;;20.12;52.25;100573.50;2104576;28;4089;-37
2021/05/25 05:06:20;;;;;;;;;;;;;;;20.08;52.05;100570.53;2104716;28;4013;-27
2021/05/25 05:07:21;;;;;;;;;;;;;;;20.07;52.16;100568.03;2102369;28;4030;-30
2021/05/25 05:08:23;;;;;;;;;;;;;;;20.06;52.05;100570.06;2103909;28;4031;-39
2021/05/25 05:09:24;;;;;;;;;;;;;;;20.03;51.75;100576.44;2104180;28;4050;-27
2021/05/25 05:10:25;;;;;;;;;;;;;;;20.00;51.78;100577.97;2104067;28;3887;-28
2021/05/25 05:11:26;;;;;;;;;;;;;;;19.98;51.86;100583.16;2105367;28;4004;-26
2021/05/25 05:12:27;;;;;;;;;;;;;;;20.00;51.90;100591.34;2094878;28;4025;-27
2021/05/25 05:13:29;;;;;;;;;;;;;;;20.00;51.95;100591.34;2104108;28;4952;-26
2021/05/25 05:14:30;;;;;;;;;;;;;;;20.00;51.80;100597.84;2105325;28;3929;-28
2021/05/25 05:15:31;;;;;;;;;;;;;;;19.99;51.89;100599.03;2103904;28;4714;-32
2021/05/25 05:16:32;;;;;;;;;;;;;;;19.99;51.76;100601.88;2104831;28;4083;-31
2021/05/25 05:17:34;;;;;;;;;;;;;;;19.93;51.56;100597.63;2102540;28;4666;-30
2021/05/25 05:18:35;;;;;;;;;;;;;;;19.93;51.75;100605.28;2101610;28;4072;-29
2021/05/25 05:19:36;;;;;;;;;;;;;;;19.93;51.69;100603.28;2103279;28;4174;-33
2021/05/25 05:20:38;;;;;;;;;;;;;;;19.93;51.64;100600.47;2104277;28;3877;-32
2021/05/25 05:21:39;;;;;;;;;;;;;;;19.91;51.73;100597.13;2101995;28;4061;-32
2021/05/25 05:22:40;;;;;;;;;;;;;;;19.91;51.46;100605.66;2103221;28;4093;-33
2021/05/25 05:23:42;;;;;;;;;;;;;;;19.89;51.38;100605.16;2102934;28;4120;-31